createdAt,value
2022-08-04T00:00:16.953Z,23.57
2022-08-04T00:02:58.782Z,23.54
2022-08-04T00:05:34.288Z,23.48
2022-08-04T00:08:08.222Z,23.46
2022-08-04T00:10:37.626Z,23.38
2022-08-04T00:13:06.590Z,23.33
2022-08-04T00:15:35.744Z,23.32
2022-08-04T00:18:09.531Z,23.35
2022-08-04T00:20:40.944Z,23.32
2022-08-04T00:23:09.870Z,23.30
2022-08-04T00:25:40.875Z,23.22
2022-08-04T00:28:09.164Z,23.29
2022-08-04T00:30:37.534Z,23.26
2022-08-04T00:33:08.378Z,23.19
2022-08-04T00:35:37.390Z,23.16
2022-08-04T00:38:06.420Z,23.19
2022-08-04T00:40:44.744Z,23.19
2022-08-04T00:43:20.815Z,23.25
2022-08-04T00:46:17.945Z,23.31
2022-08-04T00:49:09.702Z,23.34
2022-08-04T00:52:32.274Z,23.37
2022-08-04T00:54:48.449Z,23.40
2022-08-04T00:57:33.859Z,23.40
2022-08-04T01:00:09.598Z,23.41
2022-08-04T01:02:43.157Z,23.41
2022-08-04T01:05:23.019Z,23.43
2022-08-04T01:08:11.382Z,23.38
2022-08-04T01:10:49.318Z,23.37
2022-08-04T01:13:58.976Z,23.36
2022-08-04T01:16:28.193Z,23.37
2022-08-04T01:19:01.154Z,23.31
2022-08-04T01:22:04.312Z,23.31
2022-08-04T01:25:04.772Z,23.28
2022-08-04T01:27:50.781Z,23.28
2022-08-04T01:30:20.442Z,23.27
2022-08-04T01:32:53.432Z,23.26
2022-08-04T01:35:47.505Z,23.25
2022-08-04T01:38:21.383Z,23.23
2022-08-04T01:40:53.985Z,23.20
2022-08-04T01:43:22.599Z,23.20
2022-08-04T01:45:58.093Z,23.16
2022-08-04T01:48:28.181Z,23.14
2022-08-04T01:50:59.570Z,23.13
2022-08-04T01:53:32.866Z,23.12
2022-08-04T01:56:03.824Z,23.13
2022-08-04T01:58:33.340Z,23.11
2022-08-04T02:01:08.185Z,23.07
2022-08-04T02:04:20.378Z,23.06
2022-08-04T02:06:33.691Z,23.05
2022-08-04T02:09:11.192Z,23.06
2022-08-04T02:11:42.638Z,23.00
2022-08-04T02:14:35.513Z,22.94
2022-08-04T02:17:12.434Z,22.89
2022-08-04T02:20:02.675Z,22.88
2022-08-04T02:22:34.374Z,22.84
2022-08-04T02:25:07.701Z,22.84
2022-08-04T02:27:59.974Z,22.84
2022-08-04T02:30:33.158Z,22.84
2022-08-04T02:33:05.323Z,22.83
2022-08-04T02:35:38.000Z,22.84
2022-08-04T02:38:17.750Z,22.82
2022-08-04T02:40:59.181Z,22.84
2022-08-04T02:43:50.764Z,22.78
2022-08-04T02:46:20.051Z,22.72
2022-08-04T02:48:51.057Z,22.68
2022-08-04T02:51:23.640Z,22.65
2022-08-04T02:53:55.597Z,22.60
2022-08-04T02:56:25.233Z,22.59
2022-08-04T02:58:55.302Z,22.56
2022-08-04T03:01:24.446Z,22.55
2022-08-04T03:04:02.859Z,22.52
2022-08-04T03:07:14.315Z,22.51
2022-08-04T03:10:01.535Z,22.47
2022-08-04T03:13:03.000Z,22.47
2022-08-04T03:15:49.171Z,22.47
2022-08-04T03:18:52.657Z,22.49
2022-08-04T03:21:55.897Z,22.51
2022-08-04T03:25:12.724Z,22.45
2022-08-04T03:28:34.669Z,22.42
2022-08-04T03:31:23.658Z,22.39
2022-08-04T03:34:08.737Z,22.37
2022-08-04T03:37:05.456Z,22.35
2022-08-04T03:40:10.830Z,22.32
2022-08-04T03:43:59.007Z,22.33
2022-08-04T03:46:53.057Z,22.33
2022-08-04T03:49:42.470Z,22.31
2022-08-04T03:52:41.527Z,22.31
2022-08-04T03:55:45.022Z,22.37
2022-08-04T03:58:40.498Z,22.40
2022-08-04T04:01:57.829Z,22.41
2022-08-04T04:05:00.979Z,22.45
2022-08-04T04:08:13.784Z,22.53
2022-08-04T04:11:08.976Z,22.56
2022-08-04T04:14:08.944Z,22.61
2022-08-04T04:17:05.683Z,22.65
2022-08-04T04:20:10.840Z,22.69
2022-08-04T04:23:15.669Z,22.78
2022-08-04T04:25:57.107Z,22.82
2022-08-04T04:28:44.953Z,22.88
2022-08-04T04:31:38.380Z,22.97
2022-08-04T04:34:18.196Z,23.05
2022-08-04T04:37:00.612Z,23.09
2022-08-04T04:39:40.949Z,23.17
2022-08-04T04:42:26.956Z,23.22
2022-08-04T04:45:06.958Z,23.28
2022-08-04T04:48:08.536Z,23.28
2022-08-04T04:50:53.198Z,23.32
2022-08-04T04:53:28.932Z,23.31
2022-08-04T04:56:04.749Z,23.33
2022-08-04T04:58:36.364Z,23.31
2022-08-04T05:01:49.228Z,23.29
2022-08-04T05:04:58.467Z,23.26
2022-08-04T05:07:54.283Z,23.36
2022-08-04T05:10:39.684Z,23.45
2022-08-04T05:14:34.478Z,23.55
2022-08-04T05:16:19.604Z,23.63
2022-08-04T05:18:51.092Z,23.71
2022-08-04T05:21:29.761Z,23.79
2022-08-04T05:24:03.584Z,23.87
2022-08-04T05:26:35.867Z,23.93
2022-08-04T05:29:11.759Z,23.95
2022-08-04T05:31:49.477Z,23.96
2022-08-04T05:34:23.583Z,24.02
2022-08-04T05:36:56.362Z,24.06
2022-08-04T05:39:29.881Z,24.18
2022-08-04T05:42:04.762Z,24.28
2022-08-04T05:44:35.882Z,24.38
2022-08-04T05:47:07.878Z,24.45
2022-08-04T05:49:37.225Z,24.55
2022-08-04T05:52:07.418Z,24.60
2022-08-04T05:54:37.946Z,24.68
2022-08-04T05:57:08.134Z,24.74
2022-08-04T05:59:40.816Z,24.82
2022-08-04T06:02:11.373Z,24.87
2022-08-04T06:04:42.304Z,24.94
2022-08-04T06:07:11.674Z,25.10
2022-08-04T06:09:39.920Z,25.18
2022-08-04T06:12:12.429Z,25.16
2022-08-04T06:14:43.249Z,25.14
2022-08-04T06:18:32.425Z,25.22
2022-08-04T06:20:20.133Z,25.30
2022-08-04T06:22:55.315Z,25.33
2022-08-04T06:25:26.591Z,25.33
2022-08-04T06:27:57.719Z,25.41
2022-08-04T06:30:28.299Z,25.42
2022-08-04T06:33:03.393Z,25.42
2022-08-04T06:35:33.967Z,25.49
2022-08-04T06:38:03.955Z,25.51
2022-08-04T06:40:34.684Z,25.47
2022-08-04T06:43:05.220Z,25.51
2022-08-04T06:45:35.680Z,25.59
2022-08-04T06:48:07.938Z,25.63
2022-08-04T06:51:28.745Z,25.66
2022-08-04T06:53:27.147Z,25.73
2022-08-04T06:55:56.096Z,25.79
2022-08-04T06:58:25.877Z,25.89
2022-08-04T07:00:55.931Z,25.93
2022-08-04T07:03:25.665Z,25.98
2022-08-04T07:05:54.223Z,26.08
2022-08-04T07:08:22.979Z,26.20
2022-08-04T07:10:53.302Z,26.23
2022-08-04T07:13:23.413Z,26.30
2022-08-04T07:15:52.712Z,26.35
2022-08-04T07:18:21.063Z,26.37
2022-08-04T07:20:51.091Z,26.45
2022-08-04T07:23:25.571Z,26.61
2022-08-04T07:26:10.782Z,26.71
2022-08-04T07:28:42.321Z,26.75
2022-08-04T07:31:16.681Z,26.82
2022-08-04T07:34:17.261Z,26.94
2022-08-04T07:36:55.334Z,26.96
2022-08-04T07:39:27.306Z,27.11
2022-08-04T07:41:57.807Z,27.23
2022-08-04T07:44:26.406Z,27.26
2022-08-04T07:46:55.218Z,27.27
2022-08-04T07:49:54.869Z,27.36
2022-08-04T07:52:14.451Z,27.45
2022-08-04T07:54:43.466Z,27.54
2022-08-04T07:57:19.104Z,27.63
2022-08-04T07:59:50.404Z,27.64
2022-08-04T08:02:22.202Z,27.67
2022-08-04T08:04:51.378Z,27.73
2022-08-04T08:07:22.416Z,27.77
2022-08-04T08:09:50.824Z,27.84
2022-08-04T08:12:35.967Z,27.93
2022-08-04T08:15:10.345Z,28.01
2022-08-04T08:17:59.472Z,28.10
2022-08-04T08:20:31.023Z,28.17
2022-08-04T08:23:02.805Z,28.14
2022-08-04T08:25:32.452Z,28.17
2022-08-04T08:28:01.059Z,28.26
2022-08-04T08:30:31.975Z,28.31
2022-08-04T08:33:03.774Z,28.34
2022-08-04T08:35:52.942Z,28.40
2022-08-04T08:38:36.283Z,28.44
2022-08-04T08:41:23.691Z,28.48
2022-08-04T08:44:19.317Z,28.48
2022-08-04T08:47:08.709Z,28.60
2022-08-04T08:50:18.003Z,28.64
2022-08-04T08:53:10.998Z,28.78
2022-08-04T08:55:55.335Z,28.89
2022-08-04T08:58:36.642Z,28.97
2022-08-04T09:01:14.188Z,29.07
2022-08-04T09:04:23.713Z,29.22
2022-08-04T09:07:07.512Z,29.18
2022-08-04T09:09:50.631Z,29.18
2022-08-04T09:12:29.144Z,29.34
2022-08-04T09:15:10.268Z,29.47
2022-08-04T09:17:46.728Z,29.54
2022-08-04T09:20:22.627Z,29.61
2022-08-04T09:22:55.411Z,29.58
2022-08-04T09:25:27.373Z,29.66
2022-08-04T09:28:09.058Z,29.69
2022-08-04T09:30:44.543Z,29.77
2022-08-04T09:33:44.805Z,29.85
2022-08-04T09:36:26.139Z,29.89
2022-08-04T09:39:05.536Z,29.91
2022-08-04T09:41:49.102Z,29.99
2022-08-04T09:44:52.475Z,30.02
2022-08-04T09:47:26.064Z,30.09
2022-08-04T09:50:19.767Z,30.16
2022-08-04T09:52:57.549Z,30.12
2022-08-04T09:55:54.771Z,30.27
2022-08-04T09:58:34.449Z,30.25
2022-08-04T10:01:07.738Z,30.21
2022-08-04T10:03:40.235Z,30.38
2022-08-04T10:06:21.911Z,30.48
2022-08-04T10:09:02.355Z,30.50
2022-08-04T10:11:55.715Z,30.51
2022-08-04T10:14:38.982Z,30.59
2022-08-04T10:17:24.547Z,30.63
2022-08-04T10:20:08.683Z,30.68
2022-08-04T10:23:02.336Z,30.77
2022-08-04T10:26:05.290Z,30.83
2022-08-04T10:28:31.733Z,31.02
2022-08-04T10:31:06.585Z,31.04
2022-08-04T10:33:43.959Z,31.13
2022-08-04T10:36:18.604Z,31.23
2022-08-04T10:38:53.663Z,31.10
2022-08-04T10:41:31.412Z,31.23
2022-08-04T10:44:09.931Z,31.24
2022-08-04T10:46:46.473Z,31.12
2022-08-04T10:49:24.076Z,31.13
2022-08-04T10:51:59.326Z,31.26
2022-08-04T10:54:35.425Z,31.45
2022-08-04T10:57:08.703Z,31.60
2022-08-04T10:59:44.479Z,31.66
2022-08-04T11:02:26.046Z,31.69
2022-08-04T11:05:07.653Z,31.74
2022-08-04T11:07:38.321Z,31.76
2022-08-04T11:10:08.211Z,31.83
2022-08-04T11:12:39.330Z,32.12
2022-08-04T11:15:13.366Z,32.28
2022-08-04T11:17:45.119Z,32.35
2022-08-04T11:20:34.516Z,32.38
2022-08-04T11:23:08.437Z,32.48
2022-08-04T11:25:51.585Z,32.70
2022-08-04T11:28:26.694Z,32.95
2022-08-04T11:31:00.364Z,33.10
2022-08-04T11:33:36.626Z,33.01
2022-08-04T11:36:15.668Z,32.90
2022-08-04T11:38:50.890Z,32.98
2022-08-04T11:41:25.378Z,33.14
2022-08-04T11:44:03.212Z,33.24
2022-08-04T11:46:40.628Z,33.13
2022-08-04T11:49:13.036Z,33.36
2022-08-04T11:51:45.768Z,33.59
2022-08-04T11:54:15.102Z,33.88
2022-08-04T11:56:43.370Z,33.92
2022-08-04T11:59:11.624Z,33.83
2022-08-04T12:01:52.328Z,34.07
2022-08-04T12:04:29.474Z,33.97
2022-08-04T12:07:30.489Z,34.31
2022-08-04T12:10:04.980Z,34.56
2022-08-04T12:12:40.140Z,34.45
2022-08-04T12:15:17.840Z,34.59
2022-08-04T12:17:52.327Z,34.80
2022-08-04T12:20:38.046Z,35.00
2022-08-04T12:23:16.999Z,35.28
2022-08-04T12:25:48.294Z,34.85
2022-08-04T12:28:28.278Z,34.24
2022-08-04T12:31:05.298Z,34.86
2022-08-04T12:34:04.594Z,35.24
2022-08-04T12:36:37.005Z,35.66
2022-08-04T12:39:13.071Z,35.74
2022-08-04T12:41:46.679Z,35.17
2022-08-04T12:44:36.550Z,34.79
2022-08-04T12:47:27.478Z,34.48
2022-08-04T12:50:01.454Z,34.71
2022-08-04T12:53:00.457Z,34.73
2022-08-04T12:55:25.484Z,34.66
2022-08-04T12:57:55.829Z,34.39
2022-08-04T13:00:34.196Z,33.87
2022-08-04T13:03:09.679Z,33.89
2022-08-04T13:05:42.153Z,34.10
2022-08-04T13:08:12.640Z,34.07
2022-08-04T13:10:46.256Z,34.24
2022-08-04T13:13:18.130Z,35.12
2022-08-04T13:15:57.639Z,35.64
2022-08-04T13:21:22.921Z,34.78
2022-08-04T13:24:10.938Z,34.37
2022-08-04T13:26:55.960Z,34.13
2022-08-04T13:29:59.400Z,33.71
2022-08-04T13:30:24.088Z,35.29
2022-08-04T13:32:20.478Z,34.44
2022-08-04T13:34:52.644Z,35.14
2022-08-04T13:37:24.167Z,35.75
2022-08-04T13:39:55.851Z,36.27
2022-08-04T13:42:27.144Z,36.65
2022-08-04T13:44:58.410Z,36.59
2022-08-04T13:47:31.200Z,36.72
2022-08-04T13:50:27.598Z,37.01
2022-08-04T13:52:57.405Z,36.50
2022-08-04T13:55:28.489Z,37.08
2022-08-04T13:58:02.980Z,37.50
2022-08-04T14:00:47.961Z,37.50
2022-08-04T14:03:25.067Z,37.53
2022-08-04T14:06:18.644Z,37.40
2022-08-04T14:08:53.041Z,37.22
2022-08-04T14:12:09.138Z,37.80
2022-08-04T14:14:17.900Z,37.54
2022-08-04T14:17:19.982Z,38.20
2022-08-04T14:19:55.219Z,38.48
2022-08-04T14:22:30.919Z,38.73
2022-08-04T14:25:00.202Z,38.55
2022-08-04T14:27:30.414Z,38.92
2022-08-04T14:30:00.147Z,39.42
2022-08-04T14:32:28.515Z,39.16
2022-08-04T14:34:57.561Z,38.92
2022-08-04T14:37:25.965Z,39.13
2022-08-04T14:40:17.919Z,39.17
2022-08-04T14:42:55.800Z,39.30
2022-08-04T14:45:33.915Z,39.00
2022-08-04T14:48:03.216Z,38.62
2022-08-04T14:50:37.142Z,38.74
2022-08-04T14:53:08.055Z,39.01
2022-08-04T14:55:37.606Z,39.07
2022-08-04T14:58:35.571Z,39.59
2022-08-04T15:00:58.406Z,39.68
2022-08-04T15:03:27.488Z,39.49
2022-08-04T15:06:02.380Z,39.19
2022-08-04T15:08:34.175Z,39.97
2022-08-04T15:11:03.713Z,40.06
2022-08-04T15:13:33.537Z,40.34
2022-08-04T15:16:08.132Z,39.50
2022-08-04T15:18:38.829Z,39.73
2022-08-04T15:21:08.088Z,40.13
2022-08-04T15:23:38.880Z,40.37
2022-08-04T15:26:13.299Z,40.32
2022-08-04T15:28:45.902Z,38.58
2022-08-04T15:32:07.864Z,38.86
2022-08-04T15:34:07.802Z,39.14
2022-08-04T15:36:56.761Z,38.96
2022-08-04T15:39:37.018Z,38.92
2022-08-04T15:42:23.242Z,39.52
2022-08-04T15:45:21.148Z,39.58
2022-08-04T15:48:34.845Z,40.12
2022-08-04T15:51:15.025Z,40.27
2022-08-04T15:54:27.287Z,39.41
2022-08-04T15:57:02.193Z,39.99
2022-08-04T16:00:01.605Z,40.39
2022-08-04T16:02:44.410Z,39.97
2022-08-04T16:05:34.498Z,38.61
2022-08-04T16:08:14.688Z,38.08
2022-08-04T16:10:44.927Z,37.63
2022-08-04T16:13:15.002Z,37.29
2022-08-04T16:15:49.396Z,36.79
2022-08-04T16:18:26.144Z,36.28
2022-08-04T16:20:57.814Z,35.60
2022-08-04T16:24:05.256Z,35.30
2022-08-04T16:26:54.708Z,34.86
2022-08-04T16:29:38.984Z,34.98
2022-08-04T16:32:15.008Z,34.98
2022-08-04T16:34:54.317Z,35.02
2022-08-04T16:37:25.546Z,34.92
2022-08-04T16:40:46.076Z,34.81
2022-08-04T16:43:15.631Z,34.78
2022-08-04T16:45:48.942Z,34.74
2022-08-04T16:48:18.263Z,34.71
2022-08-04T16:50:52.519Z,34.54
2022-08-04T16:54:03.028Z,34.35
2022-08-04T16:56:14.566Z,34.26
2022-08-04T16:58:53.156Z,34.13
2022-08-04T17:01:33.652Z,34.14
2022-08-04T17:04:07.661Z,34.09
2022-08-04T17:06:38.253Z,33.93
2022-08-04T17:09:08.330Z,33.84
2022-08-04T17:11:38.120Z,33.83
2022-08-04T17:14:06.704Z,33.76
2022-08-04T17:16:37.120Z,33.65
2022-08-04T17:19:06.879Z,33.66
2022-08-04T17:21:49.112Z,33.71
2022-08-04T17:24:18.104Z,33.69
2022-08-04T17:26:53.878Z,33.61
2022-08-04T17:29:44.490Z,33.63
2022-08-04T17:32:17.415Z,33.61
2022-08-04T17:34:49.589Z,33.52
2022-08-04T17:37:37.997Z,33.35
2022-08-04T17:40:12.170Z,33.21
2022-08-04T17:42:42.464Z,33.19
2022-08-04T17:48:03.657Z,32.99
2022-08-04T17:50:35.686Z,32.93
2022-08-04T17:53:12.074Z,32.77
2022-08-04T17:55:44.670Z,32.66
2022-08-04T17:58:22.240Z,32.48
2022-08-04T18:01:22.746Z,32.34
2022-08-04T18:03:51.864Z,32.36
2022-08-04T18:06:23.092Z,32.31
2022-08-04T18:08:59.396Z,32.19
2022-08-04T18:11:53.934Z,32.10
2022-08-04T18:14:26.028Z,31.92
2022-08-04T18:16:57.498Z,31.91
2022-08-04T18:19:25.556Z,31.78
2022-08-04T18:22:01.026Z,31.78
2022-08-04T18:24:35.725Z,31.71
2022-08-04T18:27:22.511Z,31.59
2022-08-04T18:30:33.685Z,31.45
2022-08-04T18:33:10.136Z,31.34
2022-08-04T18:36:31.274Z,31.22
2022-08-04T18:38:23.414Z,31.03
2022-08-04T18:40:55.161Z,30.91
2022-08-04T18:43:28.129Z,30.84
2022-08-04T18:45:59.928Z,30.78
2022-08-04T18:48:35.951Z,30.68
2022-08-04T18:51:22.361Z,30.61
2022-08-04T18:53:54.998Z,30.47
2022-08-04T18:56:29.953Z,30.39
2022-08-04T18:59:00.198Z,30.31
2022-08-04T19:02:09.327Z,30.15
2022-08-04T19:04:32.945Z,30.04
2022-08-04T19:07:25.137Z,30.07
2022-08-04T19:09:53.939Z,30.05
2022-08-04T19:12:27.024Z,29.95
2022-08-04T19:15:09.089Z,29.72
2022-08-04T19:17:56.999Z,29.66
2022-08-04T19:20:30.756Z,29.60
2022-08-04T19:24:26.407Z,29.55
2022-08-04T19:26:02.082Z,29.53
2022-08-04T19:28:35.465Z,29.42
2022-08-04T19:31:05.701Z,29.34
2022-08-04T19:33:58.590Z,29.28
2022-08-04T19:36:27.701Z,29.25
2022-08-04T19:38:57.498Z,29.27
2022-08-04T19:41:26.490Z,29.17
2022-08-04T19:43:55.193Z,29.18
2022-08-04T19:46:24.950Z,29.06
2022-08-04T19:48:59.475Z,28.77
2022-08-04T19:51:30.059Z,28.54
2022-08-04T19:54:02.781Z,28.52
2022-08-04T19:56:40.448Z,28.56
2022-08-04T19:59:27.491Z,28.60
2022-08-04T20:02:00.964Z,28.65
2022-08-04T20:04:31.201Z,28.64
2022-08-04T20:06:59.526Z,28.57
2022-08-04T20:09:28.873Z,28.43
2022-08-04T20:12:06.357Z,28.39
2022-08-04T20:14:34.497Z,28.29
2022-08-04T20:17:10.440Z,28.23
2022-08-04T20:19:40.680Z,28.13
2022-08-04T20:22:52.089Z,28.08
2022-08-04T20:25:11.083Z,28.05
2022-08-04T20:27:59.966Z,28.05
2022-08-04T20:30:30.184Z,28.09
2022-08-04T20:33:00.132Z,28.06
2022-08-04T20:35:30.143Z,28.02
2022-08-04T20:38:00.726Z,28.00
2022-08-04T20:40:29.985Z,27.96
2022-08-04T20:42:58.351Z,27.95
2022-08-04T20:45:55.669Z,27.92
2022-08-04T20:48:14.873Z,27.87
2022-08-04T20:50:47.255Z,27.82
2022-08-04T20:53:16.856Z,27.77
2022-08-04T20:55:55.771Z,27.68
2022-08-04T20:58:27.350Z,27.63
2022-08-04T21:00:57.016Z,27.59
2022-08-04T21:03:49.735Z,27.58
2022-08-04T21:09:09.658Z,27.52
2022-08-04T21:11:47.329Z,27.45
2022-08-04T21:14:18.801Z,27.44
2022-08-04T21:16:55.387Z,27.40
2022-08-04T21:19:24.817Z,27.35
2022-08-04T21:21:56.635Z,27.33
2022-08-04T21:24:26.536Z,27.23
2022-08-04T21:26:57.138Z,27.18
2022-08-04T21:29:34.948Z,27.15
2022-08-04T21:32:05.729Z,27.07
2022-08-04T21:34:39.330Z,27.04
2022-08-04T21:37:11.326Z,26.93
2022-08-04T21:39:50.257Z,26.85
2022-08-04T21:42:29.031Z,26.81
2022-08-04T21:44:58.979Z,26.74
2022-08-04T21:47:45.661Z,26.72
2022-08-04T21:50:19.578Z,26.64
2022-08-04T21:52:50.092Z,26.53
2022-08-04T21:55:19.034Z,26.51
2022-08-04T21:57:49.263Z,26.50
2022-08-04T22:00:20.170Z,26.51
2022-08-04T22:02:53.573Z,26.51
2022-08-04T22:05:22.100Z,26.44
2022-08-04T22:07:52.085Z,26.37
2022-08-04T22:10:31.876Z,26.34
2022-08-04T22:13:07.062Z,26.36
2022-08-04T22:16:05.207Z,26.28
2022-08-04T22:18:24.496Z,26.29
2022-08-04T22:20:55.906Z,26.28
2022-08-04T22:23:25.707Z,26.30
2022-08-04T22:25:56.023Z,26.28
2022-08-04T22:28:28.346Z,26.23
2022-08-04T22:30:57.452Z,26.17
2022-08-04T22:33:54.705Z,26.17
2022-08-04T22:36:15.935Z,26.17
2022-08-04T22:38:48.539Z,26.15
2022-08-04T22:41:21.566Z,26.10
2022-08-04T22:44:02.307Z,26.03
2022-08-04T22:46:31.323Z,26.04
2022-08-04T22:48:59.553Z,25.98
2022-08-04T22:51:28.276Z,25.94
2022-08-04T22:54:00.338Z,25.97
2022-08-04T22:56:38.641Z,25.89
2022-08-04T22:59:10.859Z,25.88
2022-08-04T23:01:59.693Z,25.70
2022-08-04T23:04:28.740Z,25.65
2022-08-04T23:06:56.833Z,25.60
2022-08-04T23:09:50.966Z,25.58
2022-08-04T23:12:30.164Z,25.57
2022-08-04T23:14:59.542Z,25.55
2022-08-04T23:17:29.083Z,25.56
2022-08-04T23:19:59.313Z,25.44
2022-08-04T23:22:42.123Z,25.40
2022-08-04T23:25:15.268Z,25.37
2022-08-04T23:27:50.632Z,25.29
2022-08-04T23:30:24.864Z,25.24
2022-08-04T23:32:58.565Z,25.21
2022-08-04T23:35:26.711Z,25.21
2022-08-04T23:37:57.361Z,25.24
2022-08-04T23:40:33.988Z,25.18
2022-08-04T23:43:17.534Z,25.15
2022-08-04T23:46:04.197Z,25.12
2022-08-04T23:48:36.023Z,25.07
2022-08-04T23:51:13.761Z,25.06
2022-08-04T23:54:02.483Z,25.08
2022-08-04T23:56:32.976Z,25.11
2022-08-04T23:59:03.780Z,25.16
